sensor_id;sensor_type;location;lat;lon;timestamp;pressure;altitude;pressure_sealevel;temperature;humidity
6208;BME280;3137;51.550;7.060;2023-08-30T00:01:00;100574.09;;;15.23;83.64
6208;BME280;3137;51.550;7.060;2023-08-30T00:03:27;100578.06;;;15.12;83.87
6208;BME280;3137;51.550;7.060;2023-08-30T00:05:53;100570.53;;;15.07;84.31
6208;BME280;3137;51.550;7.060;2023-08-30T00:08:20;100581.88;;;15.03;84.19
6208;BME280;3137;51.550;7.060;2023-08-30T00:10:47;100572.88;;;14.96;84.43
6208;BME280;3137;51.550;7.060;2023-08-30T00:13:14;100578.31;;;14.88;84.12
6208;BME280;3137;51.550;7.060;2023-08-30T00:15:41;100571.63;;;14.84;83.86
6208;BME280;3137;51.550;7.060;2023-08-30T00:18:07;100568.66;;;14.79;84.21
6208;BME280;3137;51.550;7.060;2023-08-30T00:20:34;100573.75;;;14.74;84.26
6208;BME280;3137;51.550;7.060;2023-08-30T00:23:01;100567.91;;;14.70;83.99
6208;BME280;3137;51.550;7.060;2023-08-30T00:25:27;100562.22;;;14.65;84.49
6208;BME280;3137;51.550;7.060;2023-08-30T00:27:53;100567.28;;;14.60;83.93
6208;BME280;3137;51.550;7.060;2023-08-30T00:30:20;100565.66;;;14.59;84.36
6208;BME280;3137;51.550;7.060;2023-08-30T00:32:47;100570.53;;;14.55;84.07
6208;BME280;3137;51.550;7.060;2023-08-30T00:35:14;100563.56;;;14.46;84.30
6208;BME280;3137;51.550;7.060;2023-08-30T00:37:40;100569.66;;;14.40;84.52
6208;BME280;3137;51.550;7.060;2023-08-30T00:40:07;100566.34;;;14.38;84.04
6208;BME280;3137;51.550;7.060;2023-08-30T00:42:33;100565.31;;;14.31;83.73
6208;BME280;3137;51.550;7.060;2023-08-30T00:45:00;100566.22;;;14.24;83.93
6208;BME280;3137;51.550;7.060;2023-08-30T00:47:27;100562.59;;;14.16;83.97
6208;BME280;3137;51.550;7.060;2023-08-30T00:49:53;100571.56;;;14.01;84.48
6208;BME280;3137;51.550;7.060;2023-08-30T00:52:20;100575.09;;;14.01;84.55
6208;BME280;3137;51.550;7.060;2023-08-30T00:54:47;100569.41;;;13.96;85.13
6208;BME280;3137;51.550;7.060;2023-08-30T00:57:13;100577.84;;;13.93;85.34
6208;BME280;3137;51.550;7.060;2023-08-30T00:59:40;100562.72;;;13.92;85.62
6208;BME280;3137;51.550;7.060;2023-08-30T01:02:06;100564.59;;;13.92;85.59
6208;BME280;3137;51.550;7.060;2023-08-30T01:04:33;100556.19;;;13.95;85.96
6208;BME280;3137;51.550;7.060;2023-08-30T01:06:59;100555.16;;;13.96;86.05
6208;BME280;3137;51.550;7.060;2023-08-30T01:09:26;100554.81;;;13.99;86.03
6208;BME280;3137;51.550;7.060;2023-08-30T01:12:03;100553.97;;;13.98;85.99
6208;BME280;3137;51.550;7.060;2023-08-30T01:14:40;100547.91;;;13.96;86.11
6208;BME280;3137;51.550;7.060;2023-08-30T01:17:09;100542.06;;;13.93;85.91
6208;BME280;3137;51.550;7.060;2023-08-30T01:19:48;100536.38;;;13.88;85.98
6208;BME280;3137;51.550;7.060;2023-08-30T01:27:42;100528.19;;;13.81;85.76
6208;BME280;3137;51.550;7.060;2023-08-30T01:30:12;100522.34;;;13.78;85.98
6208;BME280;3137;51.550;7.060;2023-08-30T01:32:41;100526.88;;;13.77;85.92
6208;BME280;3137;51.550;7.060;2023-08-30T01:35:10;100529.75;;;13.76;86.12
6208;BME280;3137;51.550;7.060;2023-08-30T01:37:38;100534.47;;;13.73;86.08
6208;BME280;3137;51.550;7.060;2023-08-30T01:40:07;100527.38;;;13.81;85.90
6208;BME280;3137;51.550;7.060;2023-08-30T01:42:35;100537.22;;;13.88;85.80
6208;BME280;3137;51.550;7.060;2023-08-30T01:45:03;100528.31;;;13.88;85.12
6208;BME280;3137;51.550;7.060;2023-08-30T01:47:30;100536.16;;;13.75;85.78
6208;BME280;3137;51.550;7.060;2023-08-30T01:49:58;100537.00;;;13.67;85.94
6208;BME280;3137;51.550;7.060;2023-08-30T01:52:25;100533.00;;;13.63;86.18
6208;BME280;3137;51.550;7.060;2023-08-30T01:54:53;100532.84;;;13.64;86.37
6208;BME280;3137;51.550;7.060;2023-08-30T01:57:19;100532.00;;;13.64;86.14
6208;BME280;3137;51.550;7.060;2023-08-30T01:59:46;100531.53;;;13.60;86.32
6208;BME280;3137;51.550;7.060;2023-08-30T02:02:13;100524.63;;;13.58;86.52
6208;BME280;3137;51.550;7.060;2023-08-30T02:04:39;100531.03;;;13.57;86.38
6208;BME280;3137;51.550;7.060;2023-08-30T02:07:50;100531.19;;;13.55;86.51
6208;BME280;3137;51.550;7.060;2023-08-30T02:10:19;100536.72;;;13.54;87.02
6208;BME280;3137;51.550;7.060;2023-08-30T02:12:49;100539.75;;;13.59;87.64
6208;BME280;3137;51.550;7.060;2023-08-30T02:15:18;100544.38;;;13.73;86.96
6208;BME280;3137;51.550;7.060;2023-08-30T02:17:45;100545.69;;;13.77;87.60
6208;BME280;3137;51.550;7.060;2023-08-30T02:20:12;100539.63;;;13.83;87.50
6208;BME280;3137;51.550;7.060;2023-08-30T02:22:39;100542.06;;;13.93;86.82
6208;BME280;3137;51.550;7.060;2023-08-30T02:25:06;100540.28;;;13.85;86.92
6208;BME280;3137;51.550;7.060;2023-08-30T02:27:33;100540.31;;;13.77;86.83
6208;BME280;3137;51.550;7.060;2023-08-30T02:30:01;100535.84;;;13.69;86.96
6208;BME280;3137;51.550;7.060;2023-08-30T02:32:28;100532.47;;;13.67;87.17
6208;BME280;3137;51.550;7.060;2023-08-30T02:34:56;100542.38;;;13.67;87.42
6208;BME280;3137;51.550;7.060;2023-08-30T02:37:22;100543.06;;;13.69;87.43
6208;BME280;3137;51.550;7.060;2023-08-30T02:39:50;100539.69;;;13.67;87.45
6208;BME280;3137;51.550;7.060;2023-08-30T02:42:16;100535.53;;;13.64;87.25
6208;BME280;3137;51.550;7.060;2023-08-30T02:44:43;100533.84;;;13.63;87.36
6208;BME280;3137;51.550;7.060;2023-08-30T02:47:09;100533.47;;;13.66;87.02
6208;BME280;3137;51.550;7.060;2023-08-30T02:49:36;100529.34;;;13.56;87.08
6208;BME280;3137;51.550;7.060;2023-08-30T02:52:02;100525.50;;;13.50;87.07
6208;BME280;3137;51.550;7.060;2023-08-30T02:54:29;100520.34;;;13.49;87.47
6208;BME280;3137;51.550;7.060;2023-08-30T02:56:55;100523.34;;;13.46;87.15
6208;BME280;3137;51.550;7.060;2023-08-30T02:59:22;100523.53;;;13.44;86.99
6208;BME280;3137;51.550;7.060;2023-08-30T03:01:48;100512.84;;;13.36;86.48
6208;BME280;3137;51.550;7.060;2023-08-30T03:04:17;100509.53;;;13.26;86.79
6208;BME280;3137;51.550;7.060;2023-08-30T03:06:44;100505.50;;;13.22;87.10
6208;BME280;3137;51.550;7.060;2023-08-30T03:09:11;100501.50;;;13.18;86.84
6208;BME280;3137;51.550;7.060;2023-08-30T03:11:38;100504.34;;;13.16;86.67
6208;BME280;3137;51.550;7.060;2023-08-30T03:14:05;100514.94;;;13.18;86.88
6208;BME280;3137;51.550;7.060;2023-08-30T03:16:32;100506.03;;;13.17;86.91
6208;BME280;3137;51.550;7.060;2023-08-30T03:18:58;100506.03;;;13.17;87.28
6208;BME280;3137;51.550;7.060;2023-08-30T03:21:25;100509.91;;;13.15;87.04
6208;BME280;3137;51.550;7.060;2023-08-30T03:23:51;100504.53;;;13.15;87.20
6208;BME280;3137;51.550;7.060;2023-08-30T03:26:17;100500.81;;;13.16;87.16
6208;BME280;3137;51.550;7.060;2023-08-30T03:28:44;100501.66;;;13.16;87.13
6208;BME280;3137;51.550;7.060;2023-08-30T03:31:16;100495.81;;;13.13;87.32
6208;BME280;3137;51.550;7.060;2023-08-30T03:33:44;100500.34;;;13.12;87.25
6208;BME280;3137;51.550;7.060;2023-08-30T03:36:13;100499.69;;;13.10;87.53
6208;BME280;3137;51.550;7.060;2023-08-30T03:38:40;100495.81;;;13.05;87.38
6208;BME280;3137;51.550;7.060;2023-08-30T03:41:07;100492.81;;;13.00;87.32
6208;BME280;3137;51.550;7.060;2023-08-30T03:43:33;100491.97;;;12.99;87.37
6208;BME280;3137;51.550;7.060;2023-08-30T03:46:00;100492.16;;;12.98;87.38
6208;BME280;3137;51.550;7.060;2023-08-30T03:48:27;100497.53;;;12.98;87.78
6208;BME280;3137;51.550;7.060;2023-08-30T03:50:54;100489.13;;;13.01;87.80
6208;BME280;3137;51.550;7.060;2023-08-30T03:53:22;100489.59;;;13.04;87.83
6208;BME280;3137;51.550;7.060;2023-08-30T03:55:49;100482.22;;;13.06;87.87
6208;BME280;3137;51.550;7.060;2023-08-30T03:58:17;100494.63;;;13.07;87.90
6208;BME280;3137;51.550;7.060;2023-08-30T04:00:44;100484.44;;;13.11;87.87
6208;BME280;3137;51.550;7.060;2023-08-30T04:03:14;100493.28;;;13.11;88.06
6208;BME280;3137;51.550;7.060;2023-08-30T04:05:41;100485.06;;;13.13;88.35
6208;BME280;3137;51.550;7.060;2023-08-30T04:08:08;100487.41;;;13.16;88.18
6208;BME280;3137;51.550;7.060;2023-08-30T04:10:39;100482.88;;;13.16;88.28
6208;BME280;3137;51.550;7.060;2023-08-30T04:13:07;100484.22;;;13.12;88.45
6208;BME280;3137;51.550;7.060;2023-08-30T04:15:36;100471.97;;;13.10;88.38
6208;BME280;3137;51.550;7.060;2023-08-30T04:18:04;100471.66;;;13.13;88.27
6208;BME280;3137;51.550;7.060;2023-08-30T04:20:32;100466.97;;;13.15;88.56
6208;BME280;3137;51.550;7.060;2023-08-30T04:22:59;100464.44;;;13.13;88.37
6208;BME280;3137;51.550;7.060;2023-08-30T04:25:29;100463.75;;;13.11;88.21
6208;BME280;3137;51.550;7.060;2023-08-30T04:27:57;100457.72;;;13.09;88.08
6208;BME280;3137;51.550;7.060;2023-08-30T04:30:24;100459.72;;;13.07;88.48
6208;BME280;3137;51.550;7.060;2023-08-30T04:32:51;100462.41;;;13.07;88.29
6208;BME280;3137;51.550;7.060;2023-08-30T04:35:18;100466.78;;;13.08;88.39
6208;BME280;3137;51.550;7.060;2023-08-30T04:37:44;100456.03;;;13.08;88.58
6208;BME280;3137;51.550;7.060;2023-08-30T04:40:11;100455.19;;;13.08;88.44
6208;BME280;3137;51.550;7.060;2023-08-30T04:42:38;100453.34;;;13.08;88.84
6208;BME280;3137;51.550;7.060;2023-08-30T04:45:06;100449.34;;;13.12;88.56
6208;BME280;3137;51.550;7.060;2023-08-30T04:47:33;100457.22;;;13.14;89.01
6208;BME280;3137;51.550;7.060;2023-08-30T04:50:01;100451.38;;;13.10;88.63
6208;BME280;3137;51.550;7.060;2023-08-30T04:52:27;100450.19;;;13.05;88.56
6208;BME280;3137;51.550;7.060;2023-08-30T04:54:56;100452.56;;;13.00;88.78
6208;BME280;3137;51.550;7.060;2023-08-30T04:57:25;100445.50;;;12.99;88.77
6208;BME280;3137;51.550;7.060;2023-08-30T04:59:51;100439.50;;;12.97;88.85
6208;BME280;3137;51.550;7.060;2023-08-30T05:02:18;100441.69;;;12.93;89.06
6208;BME280;3137;51.550;7.060;2023-08-30T05:04:53;100440.84;;;12.93;89.39
6208;BME280;3137;51.550;7.060;2023-08-30T05:07:19;100439.34;;;12.90;89.54
6208;BME280;3137;51.550;7.060;2023-08-30T05:09:46;100433.97;;;12.90;89.25
6208;BME280;3137;51.550;7.060;2023-08-30T05:12:13;100434.28;;;12.95;89.78
6208;BME280;3137;51.550;7.060;2023-08-30T05:14:40;100427.41;;;13.01;88.69
6208;BME280;3137;51.550;7.060;2023-08-30T05:17:07;100423.03;;;13.00;89.17
6208;BME280;3137;51.550;7.060;2023-08-30T05:19:33;100414.34;;;12.98;89.24
6208;BME280;3137;51.550;7.060;2023-08-30T05:22:01;100418.66;;;12.99;89.46
6208;BME280;3137;51.550;7.060;2023-08-30T05:24:27;100409.63;;;13.00;89.36
6208;BME280;3137;51.550;7.060;2023-08-30T05:26:54;100406.78;;;13.01;88.96
6208;BME280;3137;51.550;7.060;2023-08-30T05:29:24;100398.03;;;12.99;89.58
6208;BME280;3137;51.550;7.060;2023-08-30T05:31:50;100396.88;;;13.02;89.12
6208;BME280;3137;51.550;7.060;2023-08-30T05:34:24;100393.34;;;13.01;89.45
6208;BME280;3137;51.550;7.060;2023-08-30T05:37:05;100403.56;;;13.06;89.11
6208;BME280;3137;51.550;7.060;2023-08-30T05:39:51;100396.81;;;13.10;89.44
6208;BME280;3137;51.550;7.060;2023-08-30T05:42:19;100391.13;;;13.13;89.50
6208;BME280;3137;51.550;7.060;2023-08-30T05:44:47;100394.50;;;13.15;89.50
6208;BME280;3137;51.550;7.060;2023-08-30T05:47:13;100388.75;;;13.18;89.51
6208;BME280;3137;51.550;7.060;2023-08-30T05:49:41;100387.75;;;13.19;89.62
6208;BME280;3137;51.550;7.060;2023-08-30T05:52:08;100383.88;;;13.21;89.71
6208;BME280;3137;51.550;7.060;2023-08-30T05:54:35;100387.50;;;13.28;89.67
6208;BME280;3137;51.550;7.060;2023-08-30T05:57:01;100379.75;;;13.34;89.57
6208;BME280;3137;51.550;7.060;2023-08-30T05:59:28;100376.19;;;13.41;89.54
6208;BME280;3137;51.550;7.060;2023-08-30T06:01:55;100374.63;;;13.47;89.58
6208;BME280;3137;51.550;7.060;2023-08-30T06:04:21;100369.56;;;13.52;89.68
6208;BME280;3137;51.550;7.060;2023-08-30T06:06:48;100369.03;;;13.56;89.27
6208;BME280;3137;51.550;7.060;2023-08-30T06:09:14;100368.66;;;13.59;89.47
6208;BME280;3137;51.550;7.060;2023-08-30T06:11:41;100368.81;;;13.66;89.53
6208;BME280;3137;51.550;7.060;2023-08-30T06:14:07;100367.91;;;13.73;89.50
6208;BME280;3137;51.550;7.060;2023-08-30T06:16:34;100364.38;;;13.73;89.15
6208;BME280;3137;51.550;7.060;2023-08-30T06:19:00;100363.00;;;13.77;89.63
6208;BME280;3137;51.550;7.060;2023-08-30T06:21:27;100361.25;;;13.84;88.95
6208;BME280;3137;51.550;7.060;2023-08-30T06:23:53;100365.53;;;13.93;88.71
6208;BME280;3137;51.550;7.060;2023-08-30T06:26:20;100362.47;;;13.96;88.99
6208;BME280;3137;51.550;7.060;2023-08-30T06:28:46;100367.28;;;14.01;88.57
6208;BME280;3137;51.550;7.060;2023-08-30T06:31:29;100365.56;;;14.08;88.68
6208;BME280;3137;51.550;7.060;2023-08-30T06:33:55;100358.97;;;14.10;87.94
6208;BME280;3137;51.550;7.060;2023-08-30T06:36:22;100356.41;;;14.17;87.63
6208;BME280;3137;51.550;7.060;2023-08-30T06:38:49;100359.19;;;14.24;87.74
6208;BME280;3137;51.550;7.060;2023-08-30T06:41:16;100361.16;;;14.30;86.94
6208;BME280;3137;51.550;7.060;2023-08-30T06:43:42;100344.13;;;14.37;87.05
6208;BME280;3137;51.550;7.060;2023-08-30T06:46:09;100349.56;;;14.44;86.37
6208;BME280;3137;51.550;7.060;2023-08-30T06:48:35;100344.66;;;14.47;85.36
6208;BME280;3137;51.550;7.060;2023-08-30T06:51:02;100342.81;;;14.48;85.04
6208;BME280;3137;51.550;7.060;2023-08-30T06:53:28;100342.44;;;14.51;85.50
6208;BME280;3137;51.550;7.060;2023-08-30T06:55:59;100340.84;;;14.56;85.37
6208;BME280;3137;51.550;7.060;2023-08-30T06:58:26;100343.66;;;14.63;85.00
6208;BME280;3137;51.550;7.060;2023-08-30T07:00:53;100344.47;;;14.63;84.27
6208;BME280;3137;51.550;7.060;2023-08-30T07:03:20;100347.06;;;14.72;84.37
6208;BME280;3137;51.550;7.060;2023-08-30T07:05:46;100346.03;;;14.73;83.42
6208;BME280;3137;51.550;7.060;2023-08-30T07:08:15;100340.63;;;14.73;83.97
6208;BME280;3137;51.550;7.060;2023-08-30T07:10:42;100339.16;;;14.85;83.64
6208;BME280;3137;51.550;7.060;2023-08-30T07:13:09;100331.53;;;14.88;83.69
6208;BME280;3137;51.550;7.060;2023-08-30T07:15:40;100332.44;;;14.95;83.61
6208;BME280;3137;51.550;7.060;2023-08-30T07:18:08;100328.22;;;15.07;83.00
6208;BME280;3137;51.550;7.060;2023-08-30T07:20:35;100342.66;;;15.21;82.08
6208;BME280;3137;51.550;7.060;2023-08-30T07:23:03;100329.22;;;15.21;81.22
6208;BME280;3137;51.550;7.060;2023-08-30T07:25:30;100327.41;;;15.28;81.55
6208;BME280;3137;51.550;7.060;2023-08-30T07:27:57;100317.59;;;15.42;80.50
6208;BME280;3137;51.550;7.060;2023-08-30T07:30:23;100318.34;;;15.50;80.94
6208;BME280;3137;51.550;7.060;2023-08-30T07:32:50;100322.97;;;15.57;80.00
6208;BME280;3137;51.550;7.060;2023-08-30T07:35:16;100319.13;;;15.66;80.06
6208;BME280;3137;51.550;7.060;2023-08-30T07:37:43;100324.41;;;15.80;79.43
6208;BME280;3137;51.550;7.060;2023-08-30T07:40:10;100321.13;;;15.85;79.54
6208;BME280;3137;51.550;7.060;2023-08-30T07:42:37;100317.44;;;15.92;77.50
6208;BME280;3137;51.550;7.060;2023-08-30T07:45:04;100317.13;;;16.09;77.89
6208;BME280;3137;51.550;7.060;2023-08-30T07:47:30;100316.75;;;16.12;76.44
6208;BME280;3137;51.550;7.060;2023-08-30T07:49:57;100310.38;;;16.19;76.94
6208;BME280;3137;51.550;7.060;2023-08-30T07:52:23;100313.78;;;16.34;75.41
6208;BME280;3137;51.550;7.060;2023-08-30T07:55:08;100322.16;;;16.46;75.75
6208;BME280;3137;51.550;7.060;2023-08-30T07:57:35;100318.47;;;16.54;75.35
6208;BME280;3137;51.550;7.060;2023-08-30T08:00:02;100322.44;;;16.58;75.00
6208;BME280;3137;51.550;7.060;2023-08-30T08:02:37;100321.25;;;16.67;74.78
6208;BME280;3137;51.550;7.060;2023-08-30T08:05:03;100319.22;;;16.75;74.10
6208;BME280;3137;51.550;7.060;2023-08-30T08:07:30;100317.16;;;16.84;74.34
6208;BME280;3137;51.550;7.060;2023-08-30T08:09:56;100324.44;;;16.90;72.22
6208;BME280;3137;51.550;7.060;2023-08-30T08:12:23;100320.31;;;16.94;71.53
6208;BME280;3137;51.550;7.060;2023-08-30T08:14:50;100322.81;;;17.02;71.57
6208;BME280;3137;51.550;7.060;2023-08-30T08:17:16;100323.47;;;17.11;70.90
6208;BME280;3137;51.550;7.060;2023-08-30T08:19:43;100323.28;;;17.12;70.25
6208;BME280;3137;51.550;7.060;2023-08-30T08:22:10;100319.38;;;17.34;68.52
6208;BME280;3137;51.550;7.060;2023-08-30T08:24:37;100318.75;;;17.32;68.61
6208;BME280;3137;51.550;7.060;2023-08-30T08:27:03;100311.06;;;17.36;69.03
6208;BME280;3137;51.550;7.060;2023-08-30T08:29:31;100312.75;;;17.44;69.74
6208;BME280;3137;51.550;7.060;2023-08-30T08:31:58;100306.91;;;17.47;68.86
6208;BME280;3137;51.550;7.060;2023-08-30T08:34:24;100313.56;;;17.44;69.03
6208;BME280;3137;51.550;7.060;2023-08-30T08:36:51;100320.22;;;17.42;67.71
6208;BME280;3137;51.550;7.060;2023-08-30T08:39:17;100316.91;;;17.40;67.74
6208;BME280;3137;51.550;7.060;2023-08-30T08:41:45;100312.91;;;17.35;67.06
6208;BME280;3137;51.550;7.060;2023-08-30T08:44:12;100306.91;;;17.40;67.78
6208;BME280;3137;51.550;7.060;2023-08-30T08:46:40;100310.66;;;17.46;67.53
6208;BME280;3137;51.550;7.060;2023-08-30T08:49:15;100305.25;;;17.46;67.78
6208;BME280;3137;51.550;7.060;2023-08-30T08:51:43;100302.75;;;17.38;67.99
6208;BME280;3137;51.550;7.060;2023-08-30T08:54:10;100299.25;;;17.44;68.15
6208;BME280;3137;51.550;7.060;2023-08-30T08:56:38;100298.38;;;17.50;67.95
6208;BME280;3137;51.550;7.060;2023-08-30T08:59:05;100300.25;;;17.49;68.64
6208;BME280;3137;51.550;7.060;2023-08-30T09:01:35;100296.34;;;17.52;67.89
6208;BME280;3137;51.550;7.060;2023-08-30T09:04:06;100297.78;;;17.54;67.10
6208;BME280;3137;51.550;7.060;2023-08-30T09:06:37;100297.41;;;17.64;67.54
6208;BME280;3137;51.550;7.060;2023-08-30T09:09:04;100301.34;;;17.81;68.13
6208;BME280;3137;51.550;7.060;2023-08-30T09:11:32;100294.91;;;17.75;67.09
6208;BME280;3137;51.550;7.060;2023-08-30T09:14:16;100298.44;;;17.76;66.11
6208;BME280;3137;51.550;7.060;2023-08-30T09:16:56;100291.34;;;17.88;66.25
6208;BME280;3137;51.550;7.060;2023-08-30T09:19:23;100286.56;;;17.84;66.77
6208;BME280;3137;51.550;7.060;2023-08-30T09:21:54;100294.25;;;18.06;66.62
6208;BME280;3137;51.550;7.060;2023-08-30T09:24:21;100294.44;;;18.05;65.12
6208;BME280;3137;51.550;7.060;2023-08-30T09:26:50;100286.97;;;18.00;65.57
6208;BME280;3137;51.550;7.060;2023-08-30T09:29:18;100289.47;;;17.89;66.46
6208;BME280;3137;51.550;7.060;2023-08-30T09:31:44;100280.97;;;17.85;66.60
6208;BME280;3137;51.550;7.060;2023-08-30T09:34:12;100285.75;;;17.76;65.95
6208;BME280;3137;51.550;7.060;2023-08-30T09:36:42;100281.19;;;17.77;66.21
6208;BME280;3137;51.550;7.060;2023-08-30T09:39:13;100280.94;;;17.78;67.00
6208;BME280;3137;51.550;7.060;2023-08-30T09:41:44;100287.63;;;17.69;67.74
6208;BME280;3137;51.550;7.060;2023-08-30T09:44:19;100278.44;;;17.57;68.85
6208;BME280;3137;51.550;7.060;2023-08-30T09:46:49;100273.84;;;17.45;69.05
6208;BME280;3137;51.550;7.060;2023-08-30T09:49:23;100276.53;;;17.25;71.33
6208;BME280;3137;51.550;7.060;2023-08-30T09:51:51;100286.50;;;17.11;71.54
6208;BME280;3137;51.550;7.060;2023-08-30T09:54:25;100291.81;;;16.85;74.71
6208;BME280;3137;51.550;7.060;2023-08-30T09:56:54;100289.38;;;16.49;77.75
6208;BME280;3137;51.550;7.060;2023-08-30T09:59:24;100287.78;;;16.27;78.22
6208;BME280;3137;51.550;7.060;2023-08-30T10:01:51;100287.97;;;16.19;80.11
6208;BME280;3137;51.550;7.060;2023-08-30T10:04:19;100297.22;;;16.10;81.03
6208;BME280;3137;51.550;7.060;2023-08-30T10:06:47;100294.59;;;16.16;81.16
6208;BME280;3137;51.550;7.060;2023-08-30T10:09:14;100293.91;;;16.08;81.71
6208;BME280;3137;51.550;7.060;2023-08-30T10:11:45;100292.41;;;15.98;81.72
6208;BME280;3137;51.550;7.060;2023-08-30T10:14:13;100289.03;;;15.90;82.01
6208;BME280;3137;51.550;7.060;2023-08-30T10:16:46;100286.84;;;15.79;82.15
6208;BME280;3137;51.550;7.060;2023-08-30T10:19:23;100290.97;;;15.75;82.56
6208;BME280;3137;51.550;7.060;2023-08-30T10:22:02;100285.53;;;15.68;82.87
6208;BME280;3137;51.550;7.060;2023-08-30T10:24:32;100281.56;;;15.64;83.12
6208;BME280;3137;51.550;7.060;2023-08-30T10:27:14;100285.69;;;15.60;83.69
6208;BME280;3137;51.550;7.060;2023-08-30T10:29:43;100279.59;;;15.51;83.92
6208;BME280;3137;51.550;7.060;2023-08-30T10:32:10;100288.81;;;15.42;84.39
6208;BME280;3137;51.550;7.060;2023-08-30T10:34:37;100285.28;;;15.42;84.91
6208;BME280;3137;51.550;7.060;2023-08-30T10:37:06;100287.13;;;15.41;84.78
6208;BME280;3137;51.550;7.060;2023-08-30T10:39:38;100280.88;;;15.34;85.36
6208;BME280;3137;51.550;7.060;2023-08-30T10:42:13;100282.16;;;15.38;85.65
6208;BME280;3137;51.550;7.060;2023-08-30T10:44:56;100285.41;;;15.34;86.00
6208;BME280;3137;51.550;7.060;2023-08-30T10:47:39;100284.00;;;15.38;86.30
6208;BME280;3137;51.550;7.060;2023-08-30T10:50:08;100280.28;;;15.39;86.14
6208;BME280;3137;51.550;7.060;2023-08-30T10:52:35;100279.44;;;15.38;86.46
6208;BME280;3137;51.550;7.060;2023-08-30T10:55:14;100275.53;;;15.41;86.49
6208;BME280;3137;51.550;7.060;2023-08-30T10:57:43;100283.38;;;15.36;87.09
6208;BME280;3137;51.550;7.060;2023-08-30T11:00:20;100284.19;;;15.36;87.05
6208;BME280;3137;51.550;7.060;2023-08-30T11:02:50;100281.13;;;15.39;87.06
6208;BME280;3137;51.550;7.060;2023-08-30T11:05:20;100286.50;;;15.39;87.14
6208;BME280;3137;51.550;7.060;2023-08-30T11:07:47;100280.47;;;15.37;86.90
6208;BME280;3137;51.550;7.060;2023-08-30T11:10:15;100281.31;;;15.38;87.58
6208;BME280;3137;51.550;7.060;2023-08-30T11:12:45;100279.44;;;15.38;88.01
6208;BME280;3137;51.550;7.060;2023-08-30T11:15:13;100279.19;;;15.33;88.07
6208;BME280;3137;51.550;7.060;2023-08-30T11:17:43;100271.75;;;15.35;88.26
6208;BME280;3137;51.550;7.060;2023-08-30T11:20:12;100271.75;;;15.35;88.34
6208;BME280;3137;51.550;7.060;2023-08-30T11:22:43;100268.16;;;15.28;88.72
6208;BME280;3137;51.550;7.060;2023-08-30T11:25:11;100271.69;;;15.29;88.66
6208;BME280;3137;51.550;7.060;2023-08-30T11:27:38;100282.00;;;15.25;88.64
6208;BME280;3137;51.550;7.060;2023-08-30T11:30:06;100271.19;;;15.19;88.81
6208;BME280;3137;51.550;7.060;2023-08-30T11:32:36;100277.59;;;15.18;89.17
6208;BME280;3137;51.550;7.060;2023-08-30T11:35:04;100281.50;;;15.15;89.48
6208;BME280;3137;51.550;7.060;2023-08-30T11:37:31;100282.00;;;15.25;88.93
6208;BME280;3137;51.550;7.060;2023-08-30T11:39:59;100281.03;;;15.12;89.36
6208;BME280;3137;51.550;7.060;2023-08-30T11:42:26;100275.09;;;15.16;89.39
6208;BME280;3137;51.550;7.060;2023-08-30T11:44:52;100262.41;;;15.10;89.93
6208;BME280;3137;51.550;7.060;2023-08-30T11:47:22;100265.41;;;15.22;89.55
6208;BME280;3137;51.550;7.060;2023-08-30T11:49:52;100268.81;;;15.09;89.77
6208;BME280;3137;51.550;7.060;2023-08-30T11:52:20;100276.63;;;15.04;90.10
6208;BME280;3137;51.550;7.060;2023-08-30T11:54:47;100270.13;;;14.98;90.08
6208;BME280;3137;51.550;7.060;2023-08-30T11:57:14;100269.97;;;15.00;90.48
6208;BME280;3137;51.550;7.060;2023-08-30T11:59:41;100272.66;;;15.00;90.31
6208;BME280;3137;51.550;7.060;2023-08-30T12:02:12;100269.84;;;15.08;90.23
6208;BME280;3137;51.550;7.060;2023-08-30T12:04:44;100278.94;;;15.07;90.08
6208;BME280;3137;51.550;7.060;2023-08-30T12:07:25;100271.78;;;15.14;90.08
6208;BME280;3137;51.550;7.060;2023-08-30T12:09:52;100270.53;;;15.17;90.01
6208;BME280;3137;51.550;7.060;2023-08-30T12:12:23;100275.88;;;15.10;90.43
6208;BME280;3137;51.550;7.060;2023-08-30T12:14:56;100273.53;;;15.28;89.94
6208;BME280;3137;51.550;7.060;2023-08-30T12:17:23;100258.53;;;15.19;90.39
6208;BME280;3137;51.550;7.060;2023-08-30T12:19:57;100268.69;;;15.17;91.04
6208;BME280;3137;51.550;7.060;2023-08-30T12:22:23;100267.94;;;15.23;90.87
6208;BME280;3137;51.550;7.060;2023-08-30T12:24:50;100261.34;;;15.32;90.18
6208;BME280;3137;51.550;7.060;2023-08-30T12:27:17;100263.47;;;15.37;90.65
6208;BME280;3137;51.550;7.060;2023-08-30T12:29:43;100258.28;;;15.35;89.78
6208;BME280;3137;51.550;7.060;2023-08-30T12:32:10;100264.53;;;15.36;90.62
6208;BME280;3137;51.550;7.060;2023-08-30T12:34:36;100273.88;;;15.40;90.24
6208;BME280;3137;51.550;7.060;2023-08-30T12:37:03;100266.59;;;15.40;90.46
6208;BME280;3137;51.550;7.060;2023-08-30T12:39:31;100262.53;;;15.44;90.43
6208;BME280;3137;51.550;7.060;2023-08-30T12:41:58;100266.84;;;15.45;90.27
6208;BME280;3137;51.550;7.060;2023-08-30T12:44:24;100253.38;;;15.45;90.25
6208;BME280;3137;51.550;7.060;2023-08-30T12:46:51;100240.72;;;15.39;90.38
6208;BME280;3137;51.550;7.060;2023-08-30T12:49:17;100241.91;;;15.37;90.51
6208;BME280;3137;51.550;7.060;2023-08-30T12:51:44;100241.91;;;15.37;91.18
6208;BME280;3137;51.550;7.060;2023-08-30T12:54:10;100238.38;;;15.36;90.90
6208;BME280;3137;51.550;7.060;2023-08-30T12:56:37;100229.44;;;15.29;91.00
6208;BME280;3137;51.550;7.060;2023-08-30T12:59:03;100216.94;;;15.22;91.08
6208;BME280;3137;51.550;7.060;2023-08-30T13:01:30;100225.84;;;15.22;90.81
6208;BME280;3137;51.550;7.060;2023-08-30T13:03:56;100232.25;;;15.21;91.02
6208;BME280;3137;51.550;7.060;2023-08-30T13:06:23;100230.97;;;15.17;91.22
6208;BME280;3137;51.550;7.060;2023-08-30T13:08:49;100236.75;;;15.14;90.91
6208;BME280;3137;51.550;7.060;2023-08-30T13:11:16;100243.00;;;15.15;91.40
6208;BME280;3137;51.550;7.060;2023-08-30T13:13:42;100236.56;;;15.16;91.37
6208;BME280;3137;51.550;7.060;2023-08-30T13:16:09;100232.84;;;15.17;91.18
6208;BME280;3137;51.550;7.060;2023-08-30T13:18:35;100230.16;;;15.17;91.12
6208;BME280;3137;51.550;7.060;2023-08-30T13:21:01;100240.16;;;15.23;90.83